createdAt,value
2023-02-04T00:00:30.762Z,0.60
2023-02-04T00:03:03.681Z,0.56
2023-02-04T00:05:37.472Z,0.54
2023-02-04T00:08:10.288Z,0.52
2023-02-04T00:10:43.506Z,0.49
2023-02-04T00:13:16.770Z,0.47
2023-02-04T00:15:50.986Z,0.46
2023-02-04T00:18:23.780Z,0.50
2023-02-04T00:21:09.309Z,0.58
2023-02-04T00:23:42.089Z,0.66
2023-02-04T00:26:14.371Z,0.75
2023-02-04T00:28:47.140Z,0.82
2023-02-04T00:31:19.647Z,0.82
2023-02-04T00:33:52.234Z,0.82
2023-02-04T00:36:24.887Z,0.79
2023-02-04T00:38:57.556Z,0.82
2023-02-04T00:41:30.046Z,0.83
2023-02-04T00:44:02.464Z,0.82
2023-02-04T00:46:37.095Z,0.79
2023-02-04T00:49:10.953Z,0.76
2023-02-04T00:51:46.024Z,0.74
2023-02-04T00:54:18.370Z,0.71
2023-02-04T00:56:51.392Z,0.70
2023-02-04T00:59:23.790Z,0.68
2023-02-04T01:01:56.229Z,0.71
2023-02-04T01:04:29.727Z,0.72
2023-02-04T01:07:02.545Z,0.72
2023-02-04T01:09:35.108Z,0.75
2023-02-04T01:12:08.155Z,0.81
2023-02-04T01:14:40.709Z,0.89
2023-02-04T01:17:13.206Z,0.97
2023-02-04T01:19:45.916Z,1.01
2023-02-04T01:22:18.855Z,1.04
2023-02-04T01:24:52.089Z,1.04
2023-02-04T01:27:43.547Z,1.03
2023-02-04T01:30:16.818Z,0.99
2023-02-04T01:32:50.362Z,0.95
2023-02-04T01:35:23.058Z,0.92
2023-02-04T01:37:57.586Z,0.92
2023-02-04T01:40:30.331Z,0.97
2023-02-04T01:43:03.533Z,0.96
2023-02-04T01:48:23.475Z,0.85
2023-02-04T01:51:02.095Z,0.84
2023-02-04T01:53:34.505Z,0.80
2023-02-04T01:56:20.460Z,0.82
2023-02-04T01:58:53.597Z,0.81
2023-02-04T02:01:46.920Z,0.81
2023-02-04T02:04:33.456Z,0.77
2023-02-04T02:07:11.779Z,0.72
2023-02-04T02:09:44.631Z,0.70
2023-02-04T02:12:17.567Z,0.75
2023-02-04T02:14:50.606Z,0.81
2023-02-04T02:17:23.594Z,0.83
2023-02-04T02:20:13.245Z,0.82
2023-02-04T02:23:26.444Z,0.79
2023-02-04T02:25:59.329Z,0.77
2023-02-04T02:28:32.084Z,0.78
2023-02-04T02:31:04.535Z,0.76
2023-02-04T02:33:37.257Z,0.76
2023-02-04T02:36:10.123Z,0.71
2023-02-04T02:38:42.984Z,0.70
2023-02-04T02:41:15.580Z,0.67
2023-02-04T02:43:48.384Z,0.69
2023-02-04T02:46:21.046Z,0.71
2023-02-04T02:48:53.725Z,0.69
2023-02-04T02:51:26.649Z,0.69
2023-02-04T02:53:59.912Z,0.66
2023-02-04T02:56:33.418Z,0.64
2023-02-04T02:59:16.552Z,0.67
2023-02-04T03:01:50.361Z,0.64
2023-02-04T03:04:23.491Z,0.63
2023-02-04T03:06:56.823Z,0.60
2023-02-04T03:09:29.694Z,0.63
2023-02-04T03:12:15.339Z,0.59
2023-02-04T03:14:48.661Z,0.59
2023-02-04T03:17:22.932Z,0.55
2023-02-04T03:19:55.724Z,0.56
2023-02-04T03:22:28.800Z,0.60
2023-02-04T03:25:01.843Z,0.63
2023-02-04T03:27:35.360Z,0.69
2023-02-04T03:30:09.141Z,0.68
2023-02-04T03:32:42.722Z,0.68
2023-02-04T03:35:15.408Z,0.69
2023-02-04T03:37:48.236Z,0.67
2023-02-04T03:40:21.421Z,0.61
2023-02-04T03:42:54.780Z,0.64
2023-02-04T03:45:32.371Z,0.65
2023-02-04T03:48:02.372Z,0.65
2023-02-04T03:50:35.162Z,0.59
2023-02-04T03:53:07.497Z,0.57
2023-02-04T03:55:40.063Z,0.54
2023-02-04T03:58:12.735Z,0.54
2023-02-04T04:00:45.222Z,0.55
2023-02-04T04:03:17.733Z,0.52
2023-02-04T04:05:50.405Z,0.54
2023-02-04T04:08:23.243Z,0.54
2023-02-04T04:10:56.233Z,0.52
2023-02-04T04:13:29.321Z,0.52
2023-02-04T04:16:03.351Z,0.55
2023-02-04T04:18:46.993Z,0.56
2023-02-04T04:21:19.926Z,0.62
2023-02-04T04:23:52.329Z,0.68
2023-02-04T04:26:24.957Z,0.71
2023-02-04T04:28:57.277Z,0.66
2023-02-04T04:31:30.046Z,0.56
2023-02-04T04:34:02.639Z,0.52
2023-02-04T04:36:36.393Z,0.54
2023-02-04T04:39:08.816Z,0.54
2023-02-04T04:41:42.319Z,0.55
2023-02-04T04:44:14.895Z,0.55
2023-02-04T04:46:47.436Z,0.57
2023-02-04T04:49:19.995Z,0.57
2023-02-04T04:51:52.621Z,0.59
2023-02-04T04:54:24.992Z,0.59
2023-02-04T04:56:57.504Z,0.61
2023-02-04T04:59:30.154Z,0.62
2023-02-04T05:02:02.875Z,0.66
2023-02-04T05:04:35.471Z,0.67
2023-02-04T05:07:08.235Z,0.67
2023-02-04T05:09:41.463Z,0.65
2023-02-04T05:12:14.066Z,0.65
2023-02-04T05:14:46.438Z,0.65
2023-02-04T05:17:18.787Z,0.70
2023-02-04T05:19:51.133Z,0.75
2023-02-04T05:22:24.120Z,0.75
2023-02-04T05:24:57.319Z,0.77
2023-02-04T05:27:30.202Z,0.80
2023-02-04T05:30:02.799Z,0.83
2023-02-04T05:32:35.454Z,0.87
2023-02-04T05:35:29.382Z,0.85
2023-02-04T05:38:03.017Z,0.89
2023-02-04T05:40:35.497Z,0.91
2023-02-04T05:43:08.344Z,0.90
2023-02-04T05:45:41.192Z,0.85
2023-02-04T05:48:13.558Z,0.82
2023-02-04T05:50:47.515Z,0.82
2023-02-04T05:53:20.445Z,0.80
2023-02-04T05:55:52.844Z,0.82
2023-02-04T05:58:25.510Z,0.81
2023-02-04T06:00:58.484Z,0.78
2023-02-04T06:03:31.631Z,0.77
2023-02-04T06:06:04.468Z,0.75
2023-02-04T06:08:37.365Z,0.70
2023-02-04T06:11:10.847Z,0.68
2023-02-04T06:13:43.369Z,0.70
2023-02-04T06:16:16.130Z,0.74
2023-02-04T06:18:48.577Z,0.78
2023-02-04T06:21:21.246Z,0.87
2023-02-04T06:23:54.015Z,0.91
2023-02-04T06:26:27.263Z,0.89
2023-02-04T06:28:59.537Z,0.85
2023-02-04T06:31:32.509Z,0.78
2023-02-04T06:34:08.253Z,0.76
2023-02-04T06:36:41.234Z,0.73
2023-02-04T06:39:13.924Z,0.71
2023-02-04T06:41:46.313Z,0.72
2023-02-04T06:44:18.786Z,0.73
2023-02-04T06:46:51.412Z,0.74
2023-02-04T06:49:25.383Z,0.72
2023-02-04T06:51:57.866Z,0.74
2023-02-04T06:54:30.537Z,0.77
2023-02-04T06:57:10.079Z,0.73
2023-02-04T06:59:43.786Z,0.70
2023-02-04T07:02:18.259Z,0.66
2023-02-04T07:04:50.869Z,0.67
2023-02-04T07:07:23.791Z,0.67
2023-02-04T07:09:56.250Z,0.69
2023-02-04T07:12:28.866Z,0.69
2023-02-04T07:15:01.695Z,0.68
2023-02-04T07:17:34.498Z,0.66
2023-02-04T07:20:08.403Z,0.67
2023-02-04T07:22:42.453Z,0.69
2023-02-04T07:25:16.171Z,0.71
2023-02-04T07:27:48.757Z,0.71
2023-02-04T07:30:21.528Z,0.73
2023-02-04T07:32:54.388Z,0.72
2023-02-04T07:35:26.800Z,0.73
2023-02-04T07:37:59.876Z,0.75
2023-02-04T07:40:33.438Z,0.80
2023-02-04T07:43:06.537Z,0.82
2023-02-04T07:45:39.516Z,0.80
2023-02-04T07:48:12.819Z,0.80
2023-02-04T07:50:45.693Z,0.82
2023-02-04T07:53:41.460Z,0.84
2023-02-04T07:56:13.915Z,0.90
2023-02-04T07:58:46.824Z,0.91
2023-02-04T08:01:19.208Z,0.92
2023-02-04T08:03:58.249Z,0.89
2023-02-04T08:06:30.650Z,0.85
2023-02-04T08:09:04.266Z,0.85
2023-02-04T08:11:38.675Z,0.87
2023-02-04T08:14:11.812Z,0.82
2023-02-04T08:16:44.809Z,0.82
2023-02-04T08:19:19.256Z,0.80
2023-02-04T08:21:51.607Z,0.77
2023-02-04T08:24:24.032Z,0.83
2023-02-04T08:26:56.394Z,0.89
2023-02-04T08:29:29.022Z,0.95
2023-02-04T08:32:02.957Z,0.93
2023-02-04T08:34:35.766Z,0.93
2023-02-04T08:37:08.077Z,0.92
2023-02-04T08:39:43.185Z,0.86
2023-02-04T08:42:17.382Z,0.84
2023-02-04T08:44:49.930Z,0.82
2023-02-04T08:47:22.244Z,0.83
2023-02-04T08:49:54.711Z,0.83
2023-02-04T08:52:27.010Z,0.77
2023-02-04T08:54:59.590Z,0.71
2023-02-04T08:57:31.938Z,0.72
2023-02-04T09:00:05.007Z,0.71
2023-02-04T09:02:37.330Z,0.66
2023-02-04T09:05:10.065Z,0.62
2023-02-04T09:07:43.454Z,0.63
2023-02-04T09:10:16.359Z,0.65
2023-02-04T09:12:50.120Z,0.66
2023-02-04T09:15:25.488Z,0.66
2023-02-04T09:18:01.161Z,0.64
2023-02-04T09:20:35.413Z,0.56
2023-02-04T09:23:10.725Z,0.56
2023-02-04T09:25:44.845Z,0.55
2023-02-04T09:28:35.768Z,0.53
2023-02-04T09:31:08.538Z,0.54
2023-02-04T09:33:40.846Z,0.56
2023-02-04T09:36:13.936Z,0.58
2023-02-04T09:38:46.394Z,0.61
2023-02-04T09:41:19.206Z,0.59
2023-02-04T09:43:51.614Z,0.58
2023-02-04T09:46:27.740Z,0.58
2023-02-04T09:49:03.890Z,0.61
2023-02-04T09:51:36.563Z,0.63
2023-02-04T09:54:23.555Z,0.59
2023-02-04T09:56:57.117Z,0.58
2023-02-04T09:59:29.688Z,0.57
2023-02-04T10:02:03.119Z,0.56
2023-02-04T10:04:35.819Z,0.54
2023-02-04T10:07:11.480Z,0.53
2023-02-04T10:09:44.617Z,0.53
2023-02-04T10:12:16.998Z,0.55
2023-02-04T10:14:50.034Z,0.59
2023-02-04T10:17:24.169Z,0.56
2023-02-04T10:19:56.745Z,0.61
2023-02-04T10:22:29.579Z,0.65
2023-02-04T10:25:02.077Z,0.63
2023-02-04T10:27:34.912Z,0.61
2023-02-04T10:30:08.708Z,0.60
2023-02-04T10:32:41.484Z,0.61
2023-02-04T10:35:17.096Z,0.62
2023-02-04T10:37:49.978Z,0.60
2023-02-04T10:40:32.379Z,0.58
2023-02-04T10:43:18.237Z,0.55
2023-02-04T10:46:04.489Z,0.53
2023-02-04T10:48:43.866Z,0.54
2023-02-04T10:51:16.375Z,0.51
2023-02-04T10:54:07.508Z,0.51
2023-02-04T10:56:40.149Z,0.49
2023-02-04T10:59:17.563Z,0.50
2023-02-04T11:01:49.991Z,0.47
2023-02-04T11:04:22.413Z,0.46
2023-02-04T11:06:55.608Z,0.47
2023-02-04T11:09:28.615Z,0.50
2023-02-04T11:12:01.053Z,0.53
2023-02-04T11:14:34.856Z,0.58
2023-02-04T11:17:07.188Z,0.62
2023-02-04T11:19:40.274Z,0.67
2023-02-04T11:22:38.175Z,0.73
2023-02-04T11:25:38.270Z,0.81
2023-02-04T11:28:25.640Z,0.82
2023-02-04T11:31:04.053Z,0.88
2023-02-04T11:33:42.384Z,0.98
2023-02-04T11:36:16.109Z,1.02
2023-02-04T11:38:50.168Z,1.03
2023-02-04T11:41:51.331Z,1.04
2023-02-04T11:44:25.372Z,1.07
2023-02-04T11:46:58.622Z,1.13
2023-02-04T11:49:31.983Z,1.17
2023-02-04T11:52:13.868Z,1.19
2023-02-04T11:54:56.944Z,1.25
2023-02-04T11:57:29.367Z,1.29
2023-02-04T12:00:01.951Z,1.26
2023-02-04T12:02:47.068Z,1.25
2023-02-04T12:05:20.891Z,1.26
2023-02-04T12:07:53.251Z,1.27
2023-02-04T12:10:27.197Z,1.25
2023-02-04T12:13:00.363Z,1.25
2023-02-04T12:15:37.540Z,1.29
2023-02-04T12:18:15.073Z,1.31
2023-02-04T12:20:47.439Z,1.36
2023-02-04T12:23:20.926Z,1.42
2023-02-04T12:25:53.503Z,1.43
2023-02-04T12:28:28.085Z,1.49
2023-02-04T12:31:00.439Z,1.52
2023-02-04T12:33:33.195Z,1.58
2023-02-04T12:36:06.213Z,1.62
2023-02-04T12:38:38.823Z,1.64
2023-02-04T12:41:11.734Z,1.69
2023-02-04T12:43:44.113Z,1.73
2023-02-04T12:46:16.537Z,1.76
2023-02-04T12:48:49.146Z,1.76
2023-02-04T12:51:22.535Z,1.74
2023-02-04T12:53:55.121Z,1.70
2023-02-04T12:56:32.152Z,1.66
2023-02-04T12:59:05.821Z,1.63
2023-02-04T13:01:38.852Z,1.60
2023-02-04T13:04:11.512Z,1.56
2023-02-04T13:06:44.663Z,1.49
2023-02-04T13:09:16.982Z,1.42
2023-02-04T13:11:49.347Z,1.37
2023-02-04T13:14:22.450Z,1.30
2023-02-04T13:16:54.982Z,1.28
2023-02-04T13:19:27.689Z,1.22
2023-02-04T13:22:00.892Z,1.17
2023-02-04T13:24:33.818Z,1.10
2023-02-04T13:27:06.344Z,1.06
2023-02-04T13:29:38.694Z,1.03
2023-02-04T13:32:11.615Z,0.97
2023-02-04T13:34:44.141Z,0.92
2023-02-04T13:37:17.014Z,0.90
2023-02-04T13:39:49.434Z,0.89
2023-02-04T13:42:21.860Z,0.89
2023-02-04T13:44:55.376Z,0.90
2023-02-04T13:47:27.811Z,0.90
2023-02-04T13:50:00.637Z,0.87
2023-02-04T13:52:34.620Z,0.82
2023-02-04T13:55:07.850Z,0.79
2023-02-04T13:57:41.201Z,0.72
2023-02-04T14:00:15.242Z,0.69
2023-02-04T14:02:50.990Z,0.60
2023-02-04T14:05:23.394Z,0.52
2023-02-04T14:07:55.935Z,0.41
2023-02-04T14:10:29.305Z,0.27
2023-02-04T14:13:02.405Z,0.15
2023-02-04T14:15:44.021Z,0.13
2023-02-04T14:18:19.598Z,0.23
2023-02-04T14:20:53.288Z,0.36
2023-02-04T14:23:26.060Z,0.31
2023-02-04T14:25:58.838Z,0.33
2023-02-04T14:28:31.406Z,0.32
2023-02-04T14:31:04.356Z,0.33
2023-02-04T14:33:37.050Z,0.34
2023-02-04T14:36:09.812Z,0.37
2023-02-04T14:38:43.306Z,0.35
2023-02-04T14:41:17.458Z,0.28
2023-02-04T14:43:49.515Z,0.22
2023-02-04T14:46:22.957Z,0.19
2023-02-04T14:48:55.581Z,0.12
2023-02-04T14:51:28.024Z,0.09
2023-02-04T14:54:00.377Z,0.08
2023-02-04T14:56:33.048Z,0.07
2023-02-04T14:59:05.460Z,0.07
2023-02-04T15:01:39.220Z,0.00
2023-02-04T15:04:12.157Z,-0.04
2023-02-04T15:06:46.233Z,-0.11
2023-02-04T15:09:18.643Z,-0.12
2023-02-04T15:11:51.517Z,-0.15
2023-02-04T15:14:24.114Z,-0.09
2023-02-04T15:16:56.787Z,-0.09
2023-02-04T15:19:29.114Z,-0.08
2023-02-04T15:22:01.574Z,-0.07
2023-02-04T15:24:34.195Z,-0.06
2023-02-04T15:27:07.144Z,-0.08
2023-02-04T15:29:39.968Z,-0.09
2023-02-04T15:35:03.101Z,-0.10
2023-02-04T15:37:36.401Z,-0.12
2023-02-04T15:40:31.949Z,-0.17
2023-02-04T15:43:05.206Z,-0.17
2023-02-04T15:45:39.803Z,-0.16
2023-02-04T15:48:12.659Z,-0.14
2023-02-04T15:50:45.620Z,-0.11
2023-02-04T15:53:19.238Z,-0.06
2023-02-04T15:55:52.099Z,-0.06
2023-02-04T15:58:24.818Z,-0.08
2023-02-04T16:00:57.639Z,-0.10
2023-02-04T16:03:30.228Z,-0.08
2023-02-04T16:06:03.810Z,-0.05
2023-02-04T16:08:36.130Z,-0.03
2023-02-04T16:11:08.813Z,0.03
2023-02-04T16:13:41.612Z,0.03
2023-02-04T16:16:14.175Z,0.07
2023-02-04T16:18:46.756Z,0.03
2023-02-04T16:21:19.252Z,-0.07
2023-02-04T16:23:51.748Z,-0.08
2023-02-04T16:26:29.123Z,-0.09
2023-02-04T16:29:03.110Z,-0.11
2023-02-04T16:31:36.244Z,-0.18
2023-02-04T16:34:08.690Z,-0.23
2023-02-04T16:36:41.293Z,-0.23
2023-02-04T16:39:13.777Z,-0.23
2023-02-04T16:41:46.571Z,-0.20
2023-02-04T16:44:19.134Z,-0.25
2023-02-04T16:46:51.704Z,-0.24
2023-02-04T16:49:25.654Z,-0.23
2023-02-04T16:51:58.106Z,-0.26
2023-02-04T16:54:30.789Z,-0.28
2023-02-04T16:57:03.953Z,-0.36
2023-02-04T16:59:38.354Z,-0.40
2023-02-04T17:02:10.902Z,-0.46
2023-02-04T17:04:43.423Z,-0.48
2023-02-04T17:07:15.989Z,-0.50
2023-02-04T17:09:48.447Z,-0.50
2023-02-04T17:12:21.728Z,-0.54
2023-02-04T17:14:55.366Z,-0.55
2023-02-04T17:17:29.020Z,-0.55
2023-02-04T17:20:01.955Z,-0.51
2023-02-04T17:22:35.405Z,-0.55
2023-02-04T17:25:08.840Z,-0.55
2023-02-04T17:27:41.572Z,-0.56
2023-02-04T17:30:35.783Z,-0.59
2023-02-04T17:33:08.706Z,-0.56
2023-02-04T17:35:41.277Z,-0.56
2023-02-04T17:38:14.165Z,-0.57
2023-02-04T17:40:46.751Z,-0.54
2023-02-04T17:43:19.423Z,-0.59
2023-02-04T17:45:52.201Z,-0.63
2023-02-04T17:48:24.611Z,-0.67
2023-02-04T17:50:57.112Z,-0.69
2023-02-04T17:53:30.849Z,-0.70
2023-02-04T17:56:05.754Z,-0.69
2023-02-04T17:58:38.219Z,-0.68
2023-02-04T18:01:14.829Z,-0.69
2023-02-04T18:03:47.654Z,-0.69
2023-02-04T18:06:29.303Z,-0.72
2023-02-04T18:09:05.278Z,-0.72
2023-02-04T18:11:41.330Z,-0.79
2023-02-04T18:14:18.095Z,-0.81
2023-02-04T18:16:52.294Z,-0.65
2023-02-04T18:19:45.919Z,-0.51
2023-02-04T18:22:19.076Z,-0.46
2023-02-04T18:24:51.623Z,-0.41
2023-02-04T18:27:25.866Z,-0.44
2023-02-04T18:30:00.519Z,-0.51
2023-02-04T18:32:39.983Z,-0.60
2023-02-04T18:38:32.525Z,-0.68
2023-02-04T18:41:21.857Z,-0.76
2023-02-04T18:44:02.714Z,-0.84
2023-02-04T18:46:58.368Z,-0.92
2023-02-04T18:49:39.741Z,-0.90
2023-02-04T18:52:16.515Z,-0.92
2023-02-04T18:54:53.767Z,-0.95
2023-02-04T18:57:47.301Z,-0.97
2023-02-04T19:00:30.946Z,-0.96
2023-02-04T19:03:28.391Z,-0.93
2023-02-04T19:06:03.232Z,-0.97
2023-02-04T19:08:45.801Z,-1.06
2023-02-04T19:11:42.909Z,-1.06
2023-02-04T19:14:40.490Z,-1.07
2023-02-04T19:17:28.266Z,-1.07
2023-02-04T19:20:19.110Z,-1.04
2023-02-04T19:22:57.114Z,-1.02
2023-02-04T19:25:37.388Z,-1.05
2023-02-04T19:28:27.932Z,-1.13
2023-02-04T19:31:08.675Z,-1.18
2023-02-04T19:33:43.144Z,-1.22
2023-02-04T19:36:34.268Z,-1.21
2023-02-04T19:39:39.776Z,-1.26
2023-02-04T19:42:46.968Z,-1.26
2023-02-04T19:45:25.552Z,-1.32
2023-02-04T19:47:58.395Z,-1.35
2023-02-04T19:50:33.380Z,-1.32
2023-02-04T19:53:14.341Z,-1.28
2023-02-04T19:55:54.488Z,-1.31
2023-02-04T19:58:40.257Z,-1.33
2023-02-04T20:01:17.965Z,-1.33
2023-02-04T20:03:51.292Z,-1.34
2023-02-04T20:06:29.504Z,-1.40
2023-02-04T20:09:30.487Z,-1.46
2023-02-04T20:12:16.315Z,-1.54
2023-02-04T20:14:52.245Z,-1.64
2023-02-04T20:17:37.549Z,-1.67
2023-02-04T20:20:26.763Z,-1.73
2023-02-04T20:23:03.599Z,-1.79
2023-02-04T20:25:47.849Z,-1.83
2023-02-04T20:28:31.066Z,-1.85
2023-02-04T20:31:04.646Z,-1.79
2023-02-04T20:33:59.602Z,-1.75
2023-02-04T20:36:41.408Z,-1.74
2023-02-04T20:39:29.772Z,-1.76
2023-02-04T20:42:36.372Z,-1.81
2023-02-04T20:45:19.832Z,-1.88
2023-02-04T20:47:55.358Z,-1.89
2023-02-04T20:50:41.359Z,-1.96
2023-02-04T20:53:39.850Z,-2.00
2023-02-04T20:56:40.418Z,-2.00
2023-02-04T20:59:31.988Z,-2.05
2023-02-04T21:02:04.764Z,-2.05
2023-02-04T21:04:41.868Z,-2.07
2023-02-04T21:07:22.378Z,-2.13
2023-02-04T21:09:57.268Z,-2.10
2023-02-04T21:12:31.149Z,-2.11
2023-02-04T21:15:03.726Z,-2.14
2023-02-04T21:17:37.452Z,-2.20
2023-02-04T21:20:30.981Z,-2.23
2023-02-04T21:23:03.745Z,-2.22
2023-02-04T21:25:36.219Z,-2.27
2023-02-04T21:28:08.762Z,-2.34
2023-02-04T21:30:41.277Z,-2.45
2023-02-04T21:33:16.668Z,-2.46
2023-02-04T21:35:49.885Z,-2.49
2023-02-04T21:38:22.257Z,-2.51
2023-02-04T21:40:54.652Z,-2.47
2023-02-04T21:43:27.091Z,-2.45
2023-02-04T21:46:00.620Z,-2.48
2023-02-04T21:48:33.391Z,-2.54
2023-02-04T21:51:05.984Z,-2.58
2023-02-04T21:53:39.247Z,-2.62
2023-02-04T21:56:11.710Z,-2.64
2023-02-04T21:58:44.228Z,-2.66
2023-02-04T22:01:16.825Z,-2.66
2023-02-04T22:03:49.277Z,-2.62
2023-02-04T22:06:21.652Z,-2.60
2023-02-04T22:08:54.705Z,-2.61
2023-02-04T22:11:28.588Z,-2.60
2023-02-04T22:14:01.076Z,-2.56
2023-02-04T22:16:34.269Z,-2.52
2023-02-04T22:19:07.199Z,-2.50
2023-02-04T22:21:40.297Z,-2.51
2023-02-04T22:24:12.768Z,-2.51
2023-02-04T22:26:45.236Z,-2.53
2023-02-04T22:29:19.348Z,-2.56
2023-02-04T22:31:52.244Z,-2.53
2023-02-04T22:34:25.605Z,-2.52
2023-02-04T22:36:58.411Z,-2.49
2023-02-04T22:39:30.803Z,-2.49
2023-02-04T22:42:03.279Z,-2.47
2023-02-04T22:44:35.712Z,-2.47
2023-02-04T22:47:08.234Z,-2.48
2023-02-04T22:49:40.675Z,-2.50
2023-02-04T22:52:14.431Z,-2.50
2023-02-04T22:54:46.966Z,-2.50
2023-02-04T22:57:19.593Z,-2.54
2023-02-04T22:59:52.088Z,-2.53
2023-02-04T23:02:24.875Z,-2.53
2023-02-04T23:04:57.550Z,-2.48
2023-02-04T23:07:29.923Z,-2.45
2023-02-04T23:10:02.240Z,-2.44
2023-02-04T23:12:35.083Z,-2.41
2023-02-04T23:15:08.744Z,-2.42
2023-02-04T23:17:41.685Z,-2.36
2023-02-04T23:20:14.028Z,-2.28
2023-02-04T23:22:47.697Z,-2.23
2023-02-04T23:25:20.985Z,-2.19
2023-02-04T23:27:53.437Z,-2.15
2023-02-04T23:30:25.968Z,-2.09
2023-02-04T23:32:59.108Z,-2.09
2023-02-04T23:35:32.185Z,-2.03
2023-02-04T23:38:20.081Z,-2.01
2023-02-04T23:40:52.988Z,-2.02
2023-02-04T23:43:25.499Z,-1.98
2023-02-04T23:45:59.545Z,-1.92
2023-02-04T23:48:32.582Z,-1.91
2023-02-04T23:51:05.920Z,-1.87
2023-02-04T23:53:38.786Z,-1.86
2023-02-04T23:56:11.109Z,-1.86
2023-02-04T23:58:44.006Z,-1.87
